Brushvale, Minnesota
Current Conditions -  °F | °C
As of 5:55 PM on Sunday 23 Nov 2014 (Local Time) from KBWP Reporting Station
Overcast Overcast  
Wind Chill: 18°   Ceiling: 2900
Heat Index: 30°   Visibility: 10mi
Dew Point: 21°   Wind: 18mph
Humidity: 69%   Direction: 300°WNW
Pressure: 29.52"   Gusts: NA
Location:  46.3422°N, 96.4653°W
Report Text: KBWP 232355Z AUTO 30016KT 10SM BKN029 BKN035 OVC043 M01/M06 A2952 RMK AO1
Loading
Personal Weather Stations






























Interactive Weather Map New forecast layout! Learn more

10-Day Weather Forecast

Advertisements
Track Severe Weather on mobile